createdAt,value
2019-01-28T00:03:11.791Z,972.51
2019-01-28T00:31:49.254Z,972.88
2019-01-28T01:00:28.186Z,973.44
2019-01-28T01:29:06.663Z,973.81
2019-01-28T01:57:44.080Z,974.13
2019-01-28T02:26:21.896Z,974.2
2019-01-28T02:54:57.786Z,974.31
2019-01-28T03:23:36.164Z,974.48
2019-01-28T03:52:11.528Z,974.48
2019-01-28T04:20:48.448Z,974.47
2019-01-28T04:49:24.886Z,974.35
2019-01-28T05:18:03.023Z,974.29
2019-01-28T05:46:42.635Z,974.45
2019-01-28T06:15:20.438Z,974.22
2019-01-28T06:43:59.058Z,974.44
2019-01-28T07:12:36.509Z,974.38
2019-01-28T07:41:17.699Z,974.58
2019-01-28T08:09:54.526Z,974.4
2019-01-28T08:38:31.220Z,974.29
2019-01-28T09:07:13.771Z,973.98
2019-01-28T09:35:54.568Z,973.87
2019-01-28T10:04:32.136Z,973.91
2019-01-28T10:33:09.328Z,973.84
2019-01-28T11:01:50.968Z,973.61
2019-01-28T11:30:27.117Z,973.34
2019-01-28T11:59:05.807Z,973.37
2019-01-28T12:27:41.221Z,973.39
2019-01-28T12:56:22.043Z,973.23
2019-01-28T13:25:00.542Z,973.4
2019-01-28T13:53:33.214Z,973.71
2019-01-28T14:22:03.827Z,973.77
2019-01-28T14:50:41.174Z,974.01
2019-01-28T15:19:17.657Z,974.18
2019-01-28T15:47:53.141Z,974.46
2019-01-28T16:16:29.993Z,974.76
2019-01-28T16:45:07.067Z,975.16
2019-01-28T17:13:43.572Z,975.61
2019-01-28T17:42:38.808Z,975.93
2019-01-28T18:10:41.478Z,976.25
2019-01-28T18:39:19.648Z,976.76
2019-01-28T19:07:56.497Z,977.28
2019-01-28T19:36:34.952Z,977.85
2019-01-28T20:05:12.825Z,978.44
2019-01-28T20:33:49.787Z,979.08
2019-01-28T21:02:27.099Z,979.8
2019-01-28T21:31:03.944Z,980.44
2019-01-28T21:59:41.565Z,980.79
2019-01-28T22:28:14.660Z,981.28
2019-01-28T22:56:52.107Z,981.74
2019-01-28T23:25:27.581Z,982.08
2019-01-28T23:54:06.267Z,982.59
